createdAt,value
2022-12-20T00:01:52.476Z,29.00
2022-12-20T00:04:20.459Z,30.40
2022-12-20T00:06:48.610Z,28.10
2022-12-20T00:09:16.929Z,27.30
2022-12-20T00:11:45.071Z,29.20
2022-12-20T00:14:13.052Z,29.30
2022-12-20T00:16:41.003Z,28.30
2022-12-20T00:19:11.393Z,25.90
2022-12-20T00:21:39.563Z,28.20
2022-12-20T00:24:07.776Z,27.70
2022-12-20T00:26:36.223Z,27.90
2022-12-20T00:29:05.393Z,27.40
2022-12-20T00:31:33.826Z,27.60
2022-12-20T00:34:02.219Z,28.50
2022-12-20T00:36:32.568Z,28.20
2022-12-20T00:39:01.594Z,28.10
2022-12-20T00:41:33.499Z,27.80
2022-12-20T00:44:03.082Z,27.70
2022-12-20T00:46:32.366Z,28.20
2022-12-20T00:49:00.648Z,26.80
2022-12-20T00:51:30.107Z,27.60
2022-12-20T00:53:58.227Z,28.10
2022-12-20T00:56:26.498Z,28.40
2022-12-20T00:58:59.823Z,28.20
2022-12-20T01:01:31.032Z,27.70
2022-12-20T01:03:59.271Z,27.50
2022-12-20T01:06:28.107Z,27.00
2022-12-20T01:08:57.184Z,27.30
2022-12-20T01:11:30.581Z,27.30
2022-12-20T01:14:02.167Z,26.70
2022-12-20T01:16:33.341Z,27.80
2022-12-20T01:19:01.760Z,27.60
2022-12-20T01:21:29.980Z,26.10
2022-12-20T01:23:58.072Z,25.30
2022-12-20T01:26:28.950Z,26.90
2022-12-20T01:28:59.845Z,27.70
2022-12-20T01:31:29.082Z,26.90
2022-12-20T01:33:57.815Z,26.70
2022-12-20T01:36:32.415Z,26.20
2022-12-20T01:39:04.609Z,28.20
2022-12-20T01:41:33.806Z,25.70
2022-12-20T01:44:03.514Z,25.60
2022-12-20T01:46:34.289Z,25.60
2022-12-20T01:49:24.284Z,26.60
2022-12-20T01:51:58.188Z,24.00
2022-12-20T01:54:31.719Z,25.80
2022-12-20T01:57:03.819Z,25.00
2022-12-20T01:59:35.560Z,26.40
2022-12-20T02:02:07.785Z,25.00
2022-12-20T02:04:38.723Z,25.30
2022-12-20T02:07:08.726Z,25.70
2022-12-20T02:09:38.801Z,25.80
2022-12-20T02:12:15.519Z,24.40
2022-12-20T02:15:18.073Z,25.60
2022-12-20T02:17:55.555Z,25.80
2022-12-20T02:20:38.673Z,25.50
2022-12-20T02:23:35.279Z,24.60
2022-12-20T02:26:21.833Z,24.30
2022-12-20T02:29:08.211Z,25.80
2022-12-20T02:31:46.720Z,26.10
2022-12-20T02:34:17.482Z,24.20
2022-12-20T02:36:45.633Z,24.30
2022-12-20T02:39:16.999Z,24.40
2022-12-20T02:42:12.068Z,24.80
2022-12-20T02:45:05.076Z,25.10
2022-12-20T02:48:10.840Z,23.60
2022-12-20T02:50:44.667Z,24.50
2022-12-20T02:53:13.866Z,23.70
2022-12-20T02:55:54.107Z,24.80
2022-12-20T02:58:30.091Z,23.60
2022-12-20T03:01:04.564Z,24.20
2022-12-20T03:03:34.728Z,24.90
2022-12-20T03:06:02.886Z,25.30
2022-12-20T03:08:31.424Z,23.60
2022-12-20T03:10:59.794Z,23.70
2022-12-20T03:13:28.934Z,23.90
2022-12-20T03:16:00.905Z,24.60
2022-12-20T03:18:29.122Z,25.00
2022-12-20T03:20:57.024Z,23.00
2022-12-20T03:23:24.835Z,24.20
2022-12-20T03:25:53.074Z,24.40
2022-12-20T03:28:28.335Z,25.80
2022-12-20T03:30:56.778Z,24.30
2022-12-20T03:33:24.787Z,24.20
2022-12-20T03:35:53.134Z,25.20
2022-12-20T03:38:22.262Z,24.70
2022-12-20T03:40:50.479Z,23.90
2022-12-20T03:43:20.923Z,23.80
2022-12-20T03:45:48.988Z,24.10
2022-12-20T03:48:17.117Z,25.60
2022-12-20T03:50:45.132Z,24.60
2022-12-20T03:53:13.240Z,23.30
2022-12-20T03:55:45.180Z,23.00
2022-12-20T03:58:13.915Z,24.50
2022-12-20T04:00:42.276Z,24.20
2022-12-20T04:03:30.446Z,23.90
2022-12-20T04:05:58.365Z,24.60
2022-12-20T04:08:26.289Z,25.50
2022-12-20T04:11:13.064Z,26.30
2022-12-20T04:14:01.064Z,26.00
2022-12-20T04:16:30.345Z,26.80
2022-12-20T04:18:58.531Z,28.00
2022-12-20T04:21:32.525Z,27.00
2022-12-20T04:24:02.315Z,26.20
2022-12-20T04:26:38.653Z,26.50
2022-12-20T04:29:06.856Z,27.00
2022-12-20T04:31:35.197Z,27.50
2022-12-20T04:34:03.383Z,26.30
2022-12-20T04:36:32.583Z,25.00
2022-12-20T04:39:01.005Z,24.50
2022-12-20T04:41:31.203Z,26.30
2022-12-20T04:44:02.130Z,25.60
2022-12-20T04:46:35.821Z,24.30
2022-12-20T04:49:04.434Z,24.10
2022-12-20T04:51:34.372Z,24.80
2022-12-20T04:54:02.588Z,26.00
2022-12-20T04:56:45.085Z,24.20
2022-12-20T04:59:16.746Z,25.00
2022-12-20T05:01:46.486Z,25.60
2022-12-20T05:04:18.428Z,24.80
2022-12-20T05:06:48.323Z,24.40
2022-12-20T05:09:16.874Z,24.30
2022-12-20T05:11:45.355Z,24.20
2022-12-20T05:14:13.636Z,25.10
2022-12-20T05:16:41.997Z,25.70
2022-12-20T05:19:10.659Z,22.90
2022-12-20T05:21:58.801Z,22.60
2022-12-20T05:24:45.588Z,23.80
2022-12-20T05:27:30.650Z,25.40
2022-12-20T05:29:59.090Z,25.30
2022-12-20T05:32:29.257Z,23.80
2022-12-20T05:34:57.407Z,22.60
2022-12-20T05:37:26.751Z,24.10
2022-12-20T05:39:55.935Z,24.30
2022-12-20T05:42:24.202Z,23.40
2022-12-20T05:44:53.001Z,24.30
2022-12-20T05:47:22.409Z,25.00
2022-12-20T05:49:55.813Z,24.30
2022-12-20T05:52:24.030Z,25.90
2022-12-20T05:54:53.563Z,25.20
2022-12-20T05:57:27.703Z,26.30
2022-12-20T05:59:56.633Z,26.00
2022-12-20T06:02:25.990Z,26.00
2022-12-20T06:05:02.978Z,23.90
2022-12-20T06:07:34.005Z,24.00
2022-12-20T06:10:02.669Z,25.90
2022-12-20T06:12:51.636Z,26.80
2022-12-20T06:15:20.676Z,26.60
2022-12-20T06:17:49.094Z,26.30
2022-12-20T06:20:18.135Z,27.80
2022-12-20T06:22:48.360Z,27.50
2022-12-20T06:25:17.520Z,26.90
2022-12-20T06:27:45.670Z,25.20
2022-12-20T06:30:16.722Z,25.20
2022-12-20T06:32:53.744Z,24.70
2022-12-20T06:35:22.290Z,25.90
2022-12-20T06:37:50.815Z,25.70
2022-12-20T06:40:19.476Z,23.90
2022-12-20T06:42:47.387Z,26.60
2022-12-20T06:45:16.803Z,26.20
2022-12-20T06:47:45.719Z,27.40
2022-12-20T06:50:13.994Z,26.70
2022-12-20T06:52:43.488Z,26.60
2022-12-20T06:55:43.081Z,27.90
2022-12-20T06:58:11.859Z,27.80
2022-12-20T07:00:40.041Z,29.20
2022-12-20T07:03:08.291Z,27.40
2022-12-20T07:05:36.757Z,29.10
2022-12-20T07:08:06.062Z,28.70
2022-12-20T07:10:37.030Z,30.20
2022-12-20T07:13:05.445Z,29.60
2022-12-20T07:15:33.936Z,28.70
2022-12-20T07:18:02.145Z,29.40
2022-12-20T07:20:30.803Z,30.60
2022-12-20T07:23:17.624Z,31.60
2022-12-20T07:25:55.941Z,31.00
2022-12-20T07:28:26.140Z,27.80
2022-12-20T07:30:55.052Z,29.40
2022-12-20T07:33:24.427Z,29.60
2022-12-20T07:36:01.060Z,29.90
2022-12-20T07:38:30.160Z,27.50
2022-12-20T07:40:58.631Z,27.90
2022-12-20T07:43:26.742Z,30.30
2022-12-20T07:45:58.069Z,28.50
2022-12-20T07:48:26.066Z,27.80
2022-12-20T07:51:01.280Z,28.60
2022-12-20T07:53:33.491Z,28.10
2022-12-20T07:56:02.771Z,28.90
2022-12-20T07:58:32.743Z,36.60
2022-12-20T08:01:02.049Z,28.10
2022-12-20T08:03:36.550Z,28.70
2022-12-20T08:06:06.726Z,28.90
2022-12-20T08:08:38.793Z,29.40
2022-12-20T08:11:10.469Z,30.10
2022-12-20T08:13:45.932Z,28.80
2022-12-20T08:16:14.695Z,29.50
2022-12-20T08:18:42.846Z,29.70
2022-12-20T08:21:13.012Z,27.60
2022-12-20T08:23:41.385Z,25.70
2022-12-20T08:26:09.280Z,27.00
2022-12-20T08:28:38.137Z,26.60
2022-12-20T08:31:08.241Z,27.60
2022-12-20T08:33:38.163Z,25.40
2022-12-20T08:36:12.707Z,26.90
2022-12-20T08:38:41.039Z,25.60
2022-12-20T08:41:11.515Z,26.90
2022-12-20T08:43:40.681Z,25.50
2022-12-20T08:46:10.352Z,25.30
2022-12-20T08:48:38.327Z,26.20
2022-12-20T08:51:09.854Z,26.60
2022-12-20T08:53:39.503Z,27.60
2022-12-20T08:56:13.302Z,27.60
2022-12-20T08:58:44.959Z,27.10
2022-12-20T09:01:15.800Z,27.40
2022-12-20T09:03:44.811Z,28.50
2022-12-20T09:06:15.911Z,29.60
2022-12-20T09:08:44.092Z,29.90
2022-12-20T09:11:15.112Z,30.00
2022-12-20T09:13:45.855Z,29.60
2022-12-20T09:16:16.456Z,31.60
2022-12-20T09:18:44.611Z,36.60
2022-12-20T09:21:12.559Z,33.30
2022-12-20T09:23:41.035Z,30.00
2022-12-20T09:26:17.252Z,33.10
2022-12-20T09:28:46.489Z,30.90
2022-12-20T09:31:26.550Z,30.30
2022-12-20T09:33:59.751Z,30.70
2022-12-20T09:36:29.295Z,29.40
2022-12-20T09:38:58.184Z,29.50
2022-12-20T09:41:43.284Z,30.00
2022-12-20T09:44:26.360Z,30.80
2022-12-20T09:46:58.518Z,27.90
2022-12-20T09:49:32.022Z,28.70
2022-12-20T09:52:21.858Z,27.20
2022-12-20T09:55:09.307Z,28.10
2022-12-20T09:58:08.233Z,28.80
2022-12-20T10:00:41.522Z,29.40
2022-12-20T10:03:18.563Z,28.60
2022-12-20T10:06:02.928Z,28.20
2022-12-20T10:08:47.270Z,28.70
2022-12-20T10:11:21.845Z,28.40
2022-12-20T10:14:37.468Z,29.30
2022-12-20T10:17:13.311Z,28.90
2022-12-20T10:20:09.002Z,31.00
2022-12-20T10:22:50.774Z,34.00
2022-12-20T10:25:25.215Z,34.10
2022-12-20T10:27:57.158Z,33.20
2022-12-20T10:30:27.566Z,33.90
2022-12-20T10:32:58.053Z,33.10
2022-12-20T10:35:33.243Z,33.20
2022-12-20T10:38:10.127Z,35.50
2022-12-20T10:43:43.130Z,34.90
2022-12-20T10:46:13.482Z,34.70
2022-12-20T10:48:43.816Z,36.40
2022-12-20T10:51:20.775Z,35.10
2022-12-20T10:53:56.681Z,34.60
2022-12-20T10:56:31.905Z,33.60
2022-12-20T10:59:21.345Z,33.60
2022-12-20T11:01:50.187Z,33.00
2022-12-20T11:04:42.250Z,33.20
2022-12-20T11:07:26.227Z,32.60
2022-12-20T11:10:00.700Z,32.30
2022-12-20T11:12:29.412Z,31.70
2022-12-20T11:15:19.782Z,32.90
2022-12-20T11:17:54.415Z,33.20
2022-12-20T11:20:32.602Z,33.60
2022-12-20T11:23:47.027Z,32.10
2022-12-20T11:26:30.616Z,31.80
2022-12-20T11:29:04.713Z,30.80
2022-12-20T11:31:42.923Z,30.90
2022-12-20T11:34:16.751Z,28.60
2022-12-20T11:37:18.170Z,29.30
2022-12-20T11:40:17.081Z,28.40
2022-12-20T11:42:51.379Z,28.10
2022-12-20T11:45:28.100Z,28.80
2022-12-20T11:48:09.959Z,30.10
2022-12-20T11:50:59.270Z,29.80
2022-12-20T11:53:40.927Z,29.80
2022-12-20T11:56:44.370Z,30.10
2022-12-20T11:59:27.105Z,29.20
2022-12-20T12:02:21.121Z,30.60
2022-12-20T12:05:07.814Z,31.80
2022-12-20T12:07:41.451Z,31.00
2022-12-20T12:10:23.613Z,29.80
2022-12-20T12:13:07.296Z,31.60
2022-12-20T12:15:57.616Z,30.90
2022-12-20T12:18:31.377Z,31.40
2022-12-20T12:21:09.464Z,31.20
2022-12-20T12:24:14.566Z,31.60
2022-12-20T12:26:42.504Z,33.10
2022-12-20T12:29:13.949Z,33.50
2022-12-20T12:32:00.720Z,31.90
2022-12-20T12:35:26.183Z,33.80
2022-12-20T12:38:15.709Z,34.60
2022-12-20T12:41:02.766Z,35.00
2022-12-20T12:43:51.749Z,35.60
2022-12-20T12:46:24.179Z,33.60
2022-12-20T12:49:04.409Z,33.60
2022-12-20T12:51:40.253Z,37.10
2022-12-20T12:54:10.089Z,37.40
2022-12-20T12:56:44.708Z,38.60
2022-12-20T12:59:35.443Z,37.60
2022-12-20T13:02:06.849Z,36.10
2022-12-20T13:04:54.586Z,37.40
2022-12-20T13:07:25.940Z,35.20
2022-12-20T13:09:54.670Z,34.00
2022-12-20T13:12:38.249Z,34.30
2022-12-20T13:15:21.571Z,34.10
2022-12-20T13:17:53.021Z,33.20
2022-12-20T13:20:30.008Z,33.20
2022-12-20T13:23:13.309Z,32.50
2022-12-20T13:25:45.835Z,34.50
2022-12-20T13:28:17.226Z,36.10
2022-12-20T13:30:47.791Z,37.10
2022-12-20T13:33:19.395Z,34.50
2022-12-20T13:35:56.450Z,33.50
2022-12-20T13:38:43.157Z,36.00
2022-12-20T13:41:25.002Z,36.30
2022-12-20T13:43:59.165Z,39.70
2022-12-20T13:46:31.250Z,43.40
2022-12-20T13:49:10.852Z,41.70
2022-12-20T13:51:39.744Z,39.80
2022-12-20T13:54:25.076Z,36.90
2022-12-20T13:56:57.433Z,34.90
2022-12-20T13:59:31.848Z,36.30
2022-12-20T14:02:04.573Z,35.50
2022-12-20T14:04:43.476Z,34.00
2022-12-20T14:07:16.697Z,34.80
2022-12-20T14:09:47.748Z,33.40
2022-12-20T14:12:26.213Z,34.80
2022-12-20T14:14:57.896Z,34.50
2022-12-20T14:17:32.403Z,34.40
2022-12-20T14:20:14.215Z,34.60
2022-12-20T14:22:47.705Z,34.40
2022-12-20T14:25:31.367Z,33.60
2022-12-20T14:28:00.236Z,35.60
2022-12-20T14:30:43.006Z,34.30
2022-12-20T14:33:21.849Z,33.30
2022-12-20T14:35:51.889Z,33.60
2022-12-20T14:38:29.188Z,35.60
2022-12-20T14:40:57.813Z,36.10
2022-12-20T14:43:37.255Z,35.30
2022-12-20T14:46:23.988Z,33.70
2022-12-20T14:49:32.968Z,35.50
2022-12-20T14:52:12.358Z,36.70
2022-12-20T14:57:36.424Z,35.20
2022-12-20T15:00:16.070Z,34.70
2022-12-20T15:03:01.093Z,32.30
2022-12-20T15:05:41.383Z,35.00
2022-12-20T15:08:14.322Z,34.40
2022-12-20T15:10:52.502Z,34.70
2022-12-20T15:13:36.746Z,35.10
2022-12-20T15:16:08.373Z,33.90
2022-12-20T15:18:37.470Z,33.80
2022-12-20T15:21:15.130Z,35.80
2022-12-20T15:23:48.389Z,36.50
2022-12-20T15:26:18.714Z,35.00
2022-12-20T15:28:47.550Z,35.80
2022-12-20T15:31:23.761Z,34.80
2022-12-20T15:33:58.225Z,35.30
2022-12-20T15:36:29.185Z,38.00
2022-12-20T15:39:15.647Z,35.40
2022-12-20T15:41:48.105Z,36.30
2022-12-20T15:44:20.050Z,34.80
2022-12-20T15:46:49.020Z,35.60
2022-12-20T15:49:19.506Z,37.40
2022-12-20T15:51:50.432Z,36.10
2022-12-20T15:54:22.982Z,35.50
2022-12-20T15:56:51.658Z,35.60
2022-12-20T15:59:57.788Z,35.60
2022-12-20T16:02:31.656Z,35.70
2022-12-20T16:05:02.131Z,37.30
2022-12-20T16:07:32.195Z,38.50
2022-12-20T16:10:01.095Z,39.20
2022-12-20T16:12:35.596Z,41.70
2022-12-20T16:15:05.484Z,42.00
2022-12-20T16:17:33.830Z,42.90
2022-12-20T16:20:02.245Z,41.50
2022-12-20T16:22:36.165Z,41.20
2022-12-20T16:25:07.632Z,39.40
2022-12-20T16:27:37.379Z,40.50
2022-12-20T16:30:07.068Z,41.20
2022-12-20T16:32:37.470Z,40.20
2022-12-20T16:35:07.364Z,38.40
2022-12-20T16:37:41.508Z,38.80
2022-12-20T16:40:16.033Z,37.90
2022-12-20T16:42:46.402Z,37.60
2022-12-20T16:45:22.091Z,37.60
2022-12-20T16:47:51.676Z,35.90
2022-12-20T16:50:25.192Z,36.80
2022-12-20T16:52:59.294Z,37.00
2022-12-20T16:55:29.633Z,37.40
2022-12-20T16:58:01.296Z,37.50
2022-12-20T17:00:30.812Z,37.50
2022-12-20T17:03:00.821Z,33.30
2022-12-20T17:05:37.669Z,34.80
2022-12-20T17:10:54.234Z,34.50
2022-12-20T17:13:23.779Z,34.60
2022-12-20T17:15:53.137Z,33.40
2022-12-20T17:18:22.116Z,34.60
2022-12-20T17:20:51.254Z,34.60
2022-12-20T17:26:06.072Z,36.80
2022-12-20T17:28:34.585Z,37.00
2022-12-20T17:31:08.015Z,34.50
2022-12-20T17:33:39.690Z,34.10
2022-12-20T17:36:08.681Z,34.40
2022-12-20T17:38:37.249Z,34.80
2022-12-20T17:41:06.050Z,35.70
2022-12-20T17:43:34.042Z,34.00
2022-12-20T17:46:02.706Z,33.00
2022-12-20T17:48:33.998Z,34.70
2022-12-20T17:51:17.861Z,35.30
2022-12-20T17:53:47.911Z,34.90
2022-12-20T17:56:37.234Z,34.70
2022-12-20T17:59:05.860Z,34.60
2022-12-20T18:01:35.935Z,34.40
2022-12-20T18:04:13.543Z,33.30
2022-12-20T18:06:44.369Z,33.30
2022-12-20T18:09:21.795Z,34.30
2022-12-20T18:11:50.145Z,34.10
2022-12-20T18:14:19.723Z,33.70
2022-12-20T18:16:50.202Z,33.60
2022-12-20T18:19:19.770Z,33.40
2022-12-20T18:21:49.594Z,34.10
2022-12-20T18:24:22.616Z,34.50
2022-12-20T18:26:53.661Z,34.80
2022-12-20T18:29:23.389Z,33.30
2022-12-20T18:31:52.720Z,35.30
2022-12-20T18:34:23.620Z,35.30
2022-12-20T18:36:53.681Z,37.30
2022-12-20T18:39:22.753Z,38.20
2022-12-20T18:41:52.263Z,38.40
2022-12-20T18:44:28.198Z,36.50
2022-12-20T18:47:01.952Z,35.60
2022-12-20T18:49:33.847Z,38.60
2022-12-20T18:52:03.308Z,35.30
2022-12-20T18:54:32.465Z,37.60
2022-12-20T18:57:06.925Z,34.20
2022-12-20T18:59:37.399Z,33.80
2022-12-20T19:02:10.170Z,34.30
2022-12-20T19:04:41.229Z,34.30
2022-12-20T19:07:11.638Z,33.80
2022-12-20T19:09:41.054Z,32.80
2022-12-20T19:12:12.924Z,33.00
2022-12-20T19:14:41.647Z,33.70
2022-12-20T19:17:17.319Z,35.30
2022-12-20T19:19:48.591Z,33.00
2022-12-20T19:22:19.001Z,33.70
2022-12-20T19:24:48.832Z,33.10
2022-12-20T19:27:17.598Z,33.10
2022-12-20T19:29:47.217Z,32.40
2022-12-20T19:32:16.179Z,33.00
2022-12-20T19:34:45.215Z,34.70
2022-12-20T19:37:14.900Z,33.20
2022-12-20T19:39:44.320Z,32.80
2022-12-20T19:42:24.298Z,33.10
2022-12-20T19:44:53.999Z,34.80
2022-12-20T19:47:25.513Z,35.00
2022-12-20T19:49:54.513Z,36.50
2022-12-20T19:52:29.805Z,36.80
2022-12-20T19:54:59.652Z,34.20
2022-12-20T19:57:28.475Z,32.30
2022-12-20T19:59:57.993Z,34.60
2022-12-20T20:02:27.075Z,34.50
2022-12-20T20:04:56.348Z,36.40
2022-12-20T20:07:24.965Z,36.80
2022-12-20T20:09:53.577Z,35.10
2022-12-20T20:12:23.107Z,34.40
2022-12-20T20:14:53.329Z,35.60
2022-12-20T20:17:22.402Z,37.50
2022-12-20T20:19:53.540Z,37.00
2022-12-20T20:22:23.289Z,35.60
2022-12-20T20:24:52.551Z,35.00
2022-12-20T20:27:21.183Z,35.40
2022-12-20T20:29:51.307Z,35.80
2022-12-20T20:32:20.544Z,36.70
2022-12-20T20:34:50.571Z,34.20
2022-12-20T20:37:19.729Z,34.60
2022-12-20T20:39:48.946Z,33.20
2022-12-20T20:42:23.040Z,34.30
2022-12-20T20:44:53.072Z,34.80
2022-12-20T20:47:21.845Z,34.40
2022-12-20T20:49:52.877Z,33.30
2022-12-20T20:52:22.022Z,32.90
2022-12-20T20:54:50.878Z,33.40
2022-12-20T20:57:19.033Z,31.80
2022-12-20T20:59:48.072Z,33.10
2022-12-20T21:02:21.730Z,30.50
2022-12-20T21:05:24.596Z,32.70
2022-12-20T21:07:40.065Z,33.40
2022-12-20T21:10:09.150Z,33.90
2022-12-20T21:12:37.736Z,34.70
2022-12-20T21:15:24.812Z,33.40
2022-12-20T21:17:53.896Z,34.60
2022-12-20T21:20:26.463Z,34.90
2022-12-20T21:22:56.455Z,36.10
2022-12-20T21:25:27.070Z,34.90
2022-12-20T21:27:57.247Z,34.50
2022-12-20T21:30:26.144Z,32.90
2022-12-20T21:32:54.912Z,33.80
2022-12-20T21:35:24.244Z,32.50
2022-12-20T21:37:53.557Z,33.00
2022-12-20T21:40:22.267Z,30.10
2022-12-20T21:42:51.129Z,31.30
2022-12-20T21:45:20.313Z,30.70
2022-12-20T21:47:49.001Z,31.60
2022-12-20T21:50:17.357Z,31.80
2022-12-20T21:52:45.708Z,30.40
2022-12-20T21:55:15.143Z,30.60
2022-12-20T21:57:44.135Z,29.10
2022-12-20T22:00:13.195Z,31.40
2022-12-20T22:02:41.620Z,30.40
2022-12-20T22:05:13.574Z,30.50
2022-12-20T22:07:42.069Z,29.80
2022-12-20T22:10:10.628Z,32.50
2022-12-20T22:12:38.916Z,32.60
2022-12-20T22:15:07.948Z,34.40
2022-12-20T22:17:36.935Z,34.90
2022-12-20T22:20:08.762Z,33.70
2022-12-20T22:22:37.801Z,34.00
2022-12-20T22:25:06.635Z,34.40
2022-12-20T22:27:35.547Z,35.20
2022-12-20T22:30:04.789Z,35.70
2022-12-20T22:32:32.866Z,36.20
2022-12-20T22:35:01.067Z,33.50
2022-12-20T22:37:29.671Z,33.70
2022-12-20T22:39:57.612Z,34.80
2022-12-20T22:42:25.901Z,34.30
2022-12-20T22:44:54.373Z,35.50
2022-12-20T22:47:25.108Z,35.80
2022-12-20T22:49:53.420Z,32.60
2022-12-20T22:52:21.891Z,32.40
2022-12-20T22:54:50.080Z,33.20
2022-12-20T22:57:18.058Z,33.00
2022-12-20T22:59:46.438Z,32.70
2022-12-20T23:02:14.619Z,34.10
2022-12-20T23:04:42.731Z,31.90
2022-12-20T23:07:10.774Z,30.80
2022-12-20T23:09:38.787Z,33.00
2022-12-20T23:12:26.709Z,34.70
2022-12-20T23:15:26.666Z,34.50
2022-12-20T23:17:54.770Z,32.20
2022-12-20T23:20:41.288Z,31.20
2022-12-20T23:23:09.823Z,31.50
2022-12-20T23:25:37.787Z,32.70
2022-12-20T23:28:05.776Z,32.20
2022-12-20T23:30:33.895Z,32.50
2022-12-20T23:33:03.081Z,31.20
2022-12-20T23:35:31.212Z,32.70
2022-12-20T23:38:00.439Z,31.00
2022-12-20T23:40:28.468Z,33.00
2022-12-20T23:42:56.542Z,32.70
2022-12-20T23:45:24.746Z,30.70
2022-12-20T23:47:52.998Z,30.30
2022-12-20T23:50:23.205Z,30.40
2022-12-20T23:52:51.186Z,31.50
2022-12-20T23:55:19.182Z,32.50
2022-12-20T23:57:47.184Z,30.20
